Flight Track Log - Related Links

Times and Time Zones

All times are in EDT time to prevent confusion due to time zone crossing. See the CHQ6029 flight status page for this flight to view local times or setup timezone preferences in your user account.

Time Position Orientation Groundspeed Altitude Reporting Facility
EDT Latitude Longitude Course Direction KTS MPH feet Rate Location/Type
Sat 07:53:10 AM 37.9669 -84.6372 94° East 190 219 3,900  Level Indianapolis Center
Sat 07:57:13 AM 37.9469 -84.2522 94° East 294 338 11,800 1,868 Climbing Indianapolis Center
Sat 07:58:12 AM 37.9414 -84.1442 91° East 294 338 13,300 1,426 Climbing Indianapolis Center
Sat 07:59:15 AM 37.9397 -84.0311 94° East 307 353 14,700 1,364 Climbing Indianapolis Center
Sat 08:00:24 AM 37.9319 -83.8889 94° East 325 374 16,300 1,406 Climbing Indianapolis Center
Sat 08:01:23 AM 37.9258 -83.7650 92° East 345 397 17,700 1,200 Climbing Indianapolis Center
Sat 08:02:24 AM 37.9219 -83.6386 94° East 350 403 18,700 1,500 Climbing Indianapolis Center
Sat 08:03:23 AM 37.9156 -83.5097 92° East 350 403 20,700 1,714 Climbing Indianapolis Center
Sat 08:04:23 AM 37.9114 -83.3833 94° East 350 403 22,100 1,600 Climbing Indianapolis Center
Sat 08:05:23 AM 37.9050 -83.2594 94° East 350 403 23,900 1,450 Climbing Indianapolis Center
Sat 08:06:23 AM 37.8983 -83.1333 94° East 350 403 25,000 545 Climbing Indianapolis Center
Sat 08:07:24 AM 37.8914 -82.9992 93° East 364 419 25,000 148 Level Indianapolis Center
Sat 08:08:25 AM 37.8864 -82.8650 94° East 369 425 25,300 496 Climbing Indianapolis Center
Sat 08:09:25 AM 37.8794 -82.7308 94° East 375 432 26,000 814 Climbing Indianapolis Center
Sat 08:10:23 AM 37.8722 -82.5994 94° East 375 432 26,900 1,424 Climbing Indianapolis Center
Sat 08:11:23 AM 37.8647 -82.4653 94° East 380 437 28,800 1,884 Climbing Indianapolis Center
Sat 08:12:24 AM 37.8572 -82.3364 95° East 367 422 30,700 1,550 Climbing Indianapolis Center
Sat 08:13:23 AM 37.8497 -82.2289 96° East 354 407 31,900 1,100 Climbing Indianapolis Center
Sat 08:14:24 AM 37.8400 -82.1028 93° East 354 407 32,900 1,041 Climbing Indianapolis Center
Sat 08:15:24 AM 37.8342 -81.9714 94° East 354 407 34,000 1,041 Climbing Indianapolis Center
Sat 08:16:25 AM 37.8261 -81.8428 94° East 361 415 35,000 300 Climbing Indianapolis Center
Sat 08:18:44 AM 37.8058 -81.5164 96° East 399 459 35,000  Level Washington Center
Sat 08:19:44 AM 37.7942 -81.3711 94° East 411 473 35,000  Level Washington Center
Sat 08:20:44 AM 37.7864 -81.2258 92° East 417 480 35,000  Level Washington Center
Sat 08:21:45 AM 37.7831 -81.0706 86° East 410 472 35,000  Level Washington Center
Sat 08:22:45 AM 37.7914 -80.9319 85° East 399 459 35,000  Level Washington Center
Sat 08:23:42 AM 37.8017 -80.7933 85° East 399 459 35,000  Level Washington Center
Sat 08:24:44 AM 37.8119 -80.6519 86° East 399 459 35,000  Level Washington Center
Sat 08:25:44 AM 37.8200 -80.5106 85° East 404 465 35,000  Level Washington Center
Sat 08:26:43 AM 37.8297 -80.3744 85° East 414 476 35,000  Level Washington Center
Sat 08:27:43 AM 37.8397 -80.2253 86° East 420 483 35,000  Level Washington Center
Sat 08:28:44 AM 37.8472 -80.0808 84° East 420 483 35,000  Level Washington Center
Sat 08:29:43 AM 37.8592 -79.9317 86° East 420 483 35,000  Level Washington Center
Sat 08:30:43 AM 37.8669 -79.7717 84° East 420 483 35,000  Level Washington Center
Sat 08:31:43 AM 37.8781 -79.6250 85° East 420 483 35,000  Level Washington Center
Sat 08:32:43 AM 37.8869 -79.4808 88° East 420 483 35,000  Level Washington Center
Sat 08:33:44 AM 37.8917 -79.3364 86° East 420 483 35,000  Level Washington Center
Sat 08:34:44 AM 37.9003 -79.1919 85° East 415 478 35,000  Level Washington Center
Sat 08:35:44 AM 37.9106 -79.0528 81° East 409 471 35,000  Level Washington Center
Sat 08:36:45 AM 37.9269 -78.9219 82° East 409 471 35,000  Level Washington Center
Sat 08:37:45 AM 37.9431 -78.7831 82° East 404 465 35,000  Level Washington Center
Sat 08:38:45 AM 37.9592 -78.6442 81° East 404 465 35,000  Level Washington Center
Sat 08:39:43 AM 37.9775 -78.5028 81° East 404 465 35,000  Level Washington Center
Sat 08:40:44 AM 37.9956 -78.3506 82° East 404 465 35,000  Level Washington Center
Sat 08:41:44 AM 38.0114 -78.2089 86° East 404 465 35,000  Level Washington Center
Sat 08:42:45 AM 38.0183 -78.0694 86° East 404 465 35,000  Level Washington Center
Sat 08:43:43 AM 38.0253 -77.9406 86° East 404 465 35,000  Level Washington Center
Sat 08:44:43 AM 38.0344 -77.7825 84° East 409 471 35,000  Level Washington Center
Sat 08:45:43 AM 38.0453 -77.6431 67° East 404 465 35,000  Level Washington Center
Sat 08:46:45 AM 38.0889 -77.5150 57° Northeast 391 450 35,000  Level Washington Center
Sat 08:47:45 AM 38.1514 -77.3925 57° Northeast 391 450 35,000  Level Washington Center
Sat 08:48:42 AM 38.2158 -77.2644 56° Northeast 410 472 35,000  Level Washington Center
Sat 08:49:43 AM 38.2758 -77.1494 57° Northeast 431 496 35,000 -738 Level Washington Center
Sat 08:50:44 AM 38.3483 -77.0056 58° Northeast 437 503 33,500 -1,525 Descending Washington Center
Sat 08:51:45 AM 38.4144 -76.8717 58° Northeast 437 503 31,900 -1,488 Descending Washington Center
Sat 08:52:45 AM 38.4806 -76.7375 56° Northeast 437 503 30,500 -1,475 Descending Washington Center
Sat 08:53:43 AM 38.5506 -76.6031 59° Northeast 437 503 29,000 -1,361 Descending Washington Center
Sat 08:54:44 AM 38.6161 -76.4658 58° Northeast 442 509 27,800 -992 Descending Washington Center
Sat 08:55:44 AM 38.6756 -76.3442 58° Northeast 448 516 27,000 -397 Descending Washington Center
Sat 08:56:45 AM 38.7408 -76.2092 57° Northeast 448 516 27,000  Level Washington Center
Sat 08:57:42 AM 38.8122 -76.0658 58° Northeast 448 516 27,000  Level Washington Center
Sat 08:58:43 AM 38.8775 -75.9331 57° Northeast 448 516 27,000  Level Washington Center
Sat 08:59:44 AM 38.9486 -75.7944 39° Northeast 448 516 27,000  Level Washington Center
Sat 09:00:45 AM 39.0444 -75.6958 36° Northeast 442 509 27,000  Level Washington Center
Sat 09:01:42 AM 39.1447 -75.6022 36° Northeast 436 502 27,000  Level Washington Center
Sat 09:02:44 AM 39.2447 -75.5086 35° Northeast 442 509 27,000  Level Washington Center
Sat 09:03:45 AM 39.3447 -75.4172 34° Northeast 442 509 27,000 -605 Level Washington Center
Sat 09:04:43 AM 39.4486 -75.3281 35° Northeast 442 509 25,800 -1,881 Descending Washington Center
Sat 09:05:43 AM 39.5483 -75.2364 36° Northeast 442 509 23,300 -2,479 Descending Washington Center
Sat 09:06:44 AM 39.6397 -75.1497 35° Northeast 435 501 20,800 -2,164 Descending Washington Center
Sat 09:07:45 AM 39.7228 -75.0736 32° Northeast 414 476 18,900 -1,916 Descending Washington Center
Sat 09:08:43 AM 39.8161 -74.9972 39° Northeast 380 437 17,000 -1,944 Descending Washington Center
Sat 09:10:44 AM 39.9611 -74.8444 47° Northeast 354 407 13,100 -1,867 Descending Washington Center
Sat 09:11:43 AM 40.0253 -74.7542 49° Northeast 340 391 11,400 -1,607 Descending Washington Center
Sat 09:12:36 AM 40.0833 -74.6667 47° Northeast 318 366 10,100 -486 Descending New York TRACON
Sat 09:14:36 AM 40.2000 -74.5000 44° Northeast 325 374 10,000 -34 Descending New York TRACON
Sat 09:15:35 AM 40.2667 -74.4167 45° Northeast 303 349 10,000 -650 Level New York TRACON
Sat 09:16:36 AM 40.3167 -74.3500 45° Northeast 268 308 8,700 -1,289 Descending New York TRACON
Sat 09:17:36 AM 40.3667 -74.2833 45° Northeast 273 314 7,400 -850 Descending New York TRACON
Sat 09:18:36 AM 40.4167 -74.2167 45° Northeast 270 311 7,000 -211 Descending New York TRACON
Sat 09:19:30 AM 40.4667 -74.1500 30° Northeast 266 306 7,000 -316 Level New York TRACON
Sat 09:20:30 AM 40.5333 -74.1000 21° North 261 300 6,400 -952 Descending New York TRACON
Sat 09:21:36 AM 40.6000 -74.0667 North 262 302 5,000 -1,143 Descending New York TRACON
Sat 09:22:36 AM 40.6833 -74.0500 24° Northeast 263 303 4,000 -250 Descending New York TRACON
Sat 09:25:36 AM 40.8833 -73.9333 56° Northeast 260 299 4,000 -200 Level New York TRACON
Sat 09:27:36 AM 40.9500 -73.8000 143° Southeast 245 282 3,000 -367 Descending New York TRACON
Sat 09:28:36 AM 40.9167 -73.7667 211° Southwest 195 224 2,900 -667 Descending New York TRACON
Sat 09:30:36 AM 40.8333 -73.8333 211° Southwest 139 160 1,000 -950 Descending New York TRACON

Login

Don't have an account? Register now (free) for customized features, flight alerts, and more!